Time;durP1;ratioP1;P1;durP2;ratioP2;P2;SDS_P1;SDS_P2;PMS_P1;PMS_P2;Temp;Humidity;BMP_temperature;BMP_pressure;BME280_temperature;BME280_humidity;BME280_pressure;Samples;Min_cycle;Max_cycle;Signal;HPM_P1;HPM_P2
2024/01/12 00:00:32;;;;;;;;;;;-5.70;99.90;;;;;;5082948;28;19983;-69
2024/01/12 00:03:01;;;;;;;;;;;-5.70;99.90;;;;;;5086506;28;19919;-69
2024/01/12 00:05:29;;;;;;;;;;;-5.70;99.90;;;;;;5105301;28;19920;-68
2024/01/12 00:07:56;;;;;;;;;;;-5.80;99.90;;;;;;5106110;28;20184;-69
2024/01/12 00:10:22;;;;;;;;;;;-5.80;99.90;;;;;;5106248;28;19927;-69
2024/01/12 00:12:49;;;;;;;;;;;-5.80;99.90;;;;;;5106367;28;19919;-69
2024/01/12 00:15:15;;;;;;;;;;;-5.80;99.90;;;;;;5089048;28;19991;-69
2024/01/12 00:17:42;;;;;;;;;;;-5.80;99.90;;;;;;5106153;28;19987;-69
2024/01/12 00:20:09;;;;;;;;;;;-5.90;99.90;;;;;;5105800;28;20107;-69
2024/01/12 00:22:37;;;;;;;;;;;-5.90;99.90;;;;;;5105922;28;19920;-69
2024/01/12 00:25:04;;;;;;;;;;;-5.90;99.90;;;;;;5104901;28;19956;-68
2024/01/12 00:27:31;;;;;;;;;;;-5.90;99.90;;;;;;5106051;28;19952;-69
2024/01/12 00:29:58;;;;;;;;;;;-6.00;99.90;;;;;;5105509;28;20280;-69
2024/01/12 00:32:24;;;;;;;;;;;-6.00;99.90;;;;;;5101942;28;19924;-69
2024/01/12 00:34:51;;;;;;;;;;;-6.00;99.90;;;;;;5096632;28;20265;-68
2024/01/12 00:37:17;;;;;;;;;;;-6.00;99.90;;;;;;5105525;28;19955;-68
2024/01/12 00:39:45;;;;;;;;;;;-6.00;99.90;;;;;;5104714;28;19959;-69
2024/01/12 00:42:12;;;;;;;;;;;-6.00;99.90;;;;;;5101461;28;19951;-69
2024/01/12 00:44:39;;;;;;;;;;;-6.10;99.90;;;;;;5102930;28;20094;-69
2024/01/12 00:47:05;;;;;;;;;;;-6.10;99.90;;;;;;5105831;28;19962;-69
2024/01/12 00:49:32;;;;;;;;;;;-6.10;99.90;;;;;;5105513;28;19962;-69
2024/01/12 00:51:59;;;;;;;;;;;-6.10;99.90;;;;;;5105213;28;20308;-70
2024/01/12 00:54:26;;;;;;;;;;;-6.10;99.90;;;;;;5105020;28;20161;-69
2024/01/12 00:56:54;;;;;;;;;;;-6.00;99.90;;;;;;5102761;28;19926;-69
2024/01/12 00:59:22;;;;;;;;;;;-6.10;99.90;;;;;;5104901;28;19926;-68
2024/01/12 01:01:49;;;;;;;;;;;-6.00;99.90;;;;;;5104880;28;19920;-70
2024/01/12 01:04:15;;;;;;;;;;;-6.10;99.90;;;;;;5104544;28;19983;-68
2024/01/12 01:06:42;;;;;;;;;;;-6.00;99.90;;;;;;5103248;28;19983;-68
2024/01/12 01:09:08;;;;;;;;;;;-6.00;99.90;;;;;;5102686;28;19920;-68
2024/01/12 01:11:35;;;;;;;;;;;-6.10;99.90;;;;;;5105048;28;19983;-69
2024/01/12 01:14:03;;;;;;;;;;;-6.10;99.90;;;;;;5104211;28;20113;-69
2024/01/12 01:16:30;;;;;;;;;;;-6.00;99.90;;;;;;5104708;28;20225;-69
2024/01/12 01:18:56;;;;;;;;;;;-6.10;99.90;;;;;;5104552;28;19987;-69
2024/01/12 01:21:23;;;;;;;;;;;-6.10;99.90;;;;;;5104946;28;19957;-69
2024/01/12 01:23:49;;;;;;;;;;;-6.10;99.90;;;;;;5103794;28;19928;-69
2024/01/12 01:26:15;;;;;;;;;;;-6.10;99.90;;;;;;5104862;28;19919;-69
2024/01/12 01:28:42;;;;;;;;;;;-6.10;99.90;;;;;;5104459;28;20086;-69
2024/01/12 01:31:10;;;;;;;;;;;-6.10;99.90;;;;;;5100386;28;20232;-69
2024/01/12 01:33:36;;;;;;;;;;;-6.10;99.90;;;;;;5098638;28;19955;-69
2024/01/12 01:36:03;;;;;;;;;;;-6.10;99.90;;;;;;5104470;28;19920;-69
2024/01/12 01:38:30;;;;;;;;;;;-6.10;99.90;;;;;;5104080;28;19962;-69
2024/01/12 01:40:56;;;;;;;;;;;-6.10;99.90;;;;;;5104362;28;20111;-69
2024/01/12 01:43:23;;;;;;;;;;;-6.20;99.90;;;;;;5104418;28;19926;-69
2024/01/12 01:45:50;;;;;;;;;;;-6.20;99.90;;;;;;5103701;28;20399;-69
2024/01/12 01:48:18;;;;;;;;;;;-6.20;99.90;;;;;;5088359;28;19963;-68
2024/01/12 01:50:44;;;;;;;;;;;-6.20;99.90;;;;;;5104408;28;19962;-68
2024/01/12 01:53:11;;;;;;;;;;;-6.30;99.90;;;;;;5103683;28;19940;-68
2024/01/12 01:55:38;;;;;;;;;;;-6.30;99.90;;;;;;5096629;28;19991;-69
2024/01/12 01:58:05;;;;;;;;;;;-6.30;99.90;;;;;;5086409;28;19939;-68
2024/01/12 02:00:32;;;;;;;;;;;-6.30;99.90;;;;;;5090272;28;19921;-68
2024/01/12 02:02:59;;;;;;;;;;;-6.30;99.90;;;;;;5093485;28;19956;-69
2024/01/12 02:05:28;;;;;;;;;;;-6.30;99.90;;;;;;5103282;28;20287;-69
2024/01/12 02:07:54;;;;;;;;;;;-6.30;99.90;;;;;;5095909;28;19984;-70
2024/01/12 02:10:21;;;;;;;;;;;-6.30;99.90;;;;;;5104118;28;19983;-68
2024/01/12 02:12:48;;;;;;;;;;;-6.30;99.90;;;;;;5103263;28;19951;-69
2024/01/12 02:15:15;;;;;;;;;;;-6.30;99.90;;;;;;5098202;28;20260;-69
2024/01/12 02:17:43;;;;;;;;;;;-6.40;99.90;;;;;;5093693;28;19927;-69
2024/01/12 02:20:10;;;;;;;;;;;-6.40;99.90;;;;;;5103570;28;20213;-68
2024/01/12 02:22:38;;;;;;;;;;;-6.40;99.90;;;;;;5103593;28;19954;-68
2024/01/12 02:25:05;;;;;;;;;;;-6.40;99.90;;;;;;5102989;28;19951;-69
2024/01/12 02:27:31;;;;;;;;;;;-6.50;99.90;;;;;;5103911;28;19920;-69
2024/01/12 02:29:58;;;;;;;;;;;-6.50;99.90;;;;;;5102673;28;19944;-69
2024/01/12 02:32:24;;;;;;;;;;;-6.50;99.90;;;;;;5095391;28;19948;-69
2024/01/12 02:34:51;;;;;;;;;;;-6.50;99.90;;;;;;5102604;28;19983;-69
2024/01/12 02:37:18;;;;;;;;;;;-6.50;99.90;;;;;;5103972;28;19920;-69
2024/01/12 02:39:46;;;;;;;;;;;-6.40;99.90;;;;;;5103670;28;19919;-68
2024/01/12 02:42:12;;;;;;;;;;;-6.40;99.90;;;;;;5103740;28;20116;-68
2024/01/12 02:44:39;;;;;;;;;;;-6.40;99.90;;;;;;5097921;28;19952;-69
2024/01/12 02:47:07;;;;;;;;;;;-6.40;99.90;;;;;;5100991;28;19986;-69
2024/01/12 02:49:34;;;;;;;;;;;-6.40;99.90;;;;;;5097925;28;19987;-68
2024/01/12 02:52:01;;;;;;;;;;;-6.40;99.90;;;;;;5103516;28;20183;-68
2024/01/12 02:54:27;;;;;;;;;;;-6.40;99.90;;;;;;5097073;28;19928;-69
2024/01/12 02:56:55;;;;;;;;;;;-6.40;99.90;;;;;;5083629;28;19959;-69
2024/01/12 02:59:22;;;;;;;;;;;-6.30;99.90;;;;;;5083701;28;19952;-68
2024/01/12 03:01:48;;;;;;;;;;;-6.30;99.90;;;;;;5083525;28;20269;-68
2024/01/12 03:04:15;;;;;;;;;;;-6.30;99.90;;;;;;5086593;28;19998;-68
2024/01/12 03:06:42;;;;;;;;;;;-6.40;99.90;;;;;;5080776;28;20151;-70
2024/01/12 03:09:09;;;;;;;;;;;-6.30;99.90;;;;;;5076493;28;19952;-69
2024/01/12 03:11:35;;;;;;;;;;;-6.30;99.90;;;;;;5103337;28;19972;-68
2024/01/12 03:14:03;;;;;;;;;;;-6.20;99.90;;;;;;5084292;28;19987;-68
2024/01/12 03:16:30;;;;;;;;;;;-6.20;99.90;;;;;;5083276;28;19952;-69
2024/01/12 03:18:56;;;;;;;;;;;-6.10;99.90;;;;;;5083237;28;19920;-69
2024/01/12 03:21:23;;;;;;;;;;;-6.10;99.90;;;;;;5095726;28;20213;-69
2024/01/12 03:23:50;;;;;;;;;;;-6.00;99.90;;;;;;5103294;28;19920;-69
2024/01/12 03:26:16;;;;;;;;;;;-6.00;99.90;;;;;;5100299;28;20201;-69
2024/01/12 03:28:43;;;;;;;;;;;-5.90;99.90;;;;;;5106770;28;19926;-69
2024/01/12 03:31:11;;;;;;;;;;;-5.80;99.90;;;;;;5096946;28;19963;-69
2024/01/12 03:33:38;;;;;;;;;;;-5.80;99.90;;;;;;5106062;28;19962;-69
2024/01/12 03:36:06;;;;;;;;;;;-5.70;99.90;;;;;;5106305;28;19920;-69
2024/01/12 03:38:33;;;;;;;;;;;-5.70;99.90;;;;;;5101353;28;19994;-69
2024/01/12 03:40:59;;;;;;;;;;;-5.70;99.90;;;;;;5106465;28;19920;-69
2024/01/12 03:43:26;;;;;;;;;;;-5.70;99.90;;;;;;5106126;28;19930;-69
2024/01/12 03:45:52;;;;;;;;;;;-5.70;99.90;;;;;;5106028;28;19939;-69
2024/01/12 03:48:20;;;;;;;;;;;-5.60;99.90;;;;;;5106155;28;19920;-69
2024/01/12 03:50:47;;;;;;;;;;;-5.60;99.90;;;;;;5106531;28;19970;-69
2024/01/12 03:53:14;;;;;;;;;;;-5.60;99.90;;;;;;5105686;28;19920;-69
2024/01/12 03:55:40;;;;;;;;;;;-5.50;99.90;;;;;;5094285;28;19959;-69
2024/01/12 03:58:07;;;;;;;;;;;-5.50;99.90;;;;;;5105206;28;19951;-69
2024/01/12 04:00:33;;;;;;;;;;;-5.50;99.90;;;;;;5106485;28;19947;-69
2024/01/12 04:03:00;;;;;;;;;;;-5.40;99.90;;;;;;5105870;28;19991;-69
2024/01/12 04:05:28;;;;;;;;;;;-5.40;99.90;;;;;;5105818;28;19920;-68
2024/01/12 04:07:55;;;;;;;;;;;-5.40;99.90;;;;;;5104815;28;20201;-68
2024/01/12 04:10:22;;;;;;;;;;;-5.30;99.90;;;;;;5106284;28;19927;-69
2024/01/12 04:12:48;;;;;;;;;;;-5.30;99.90;;;;;;5106182;28;20161;-68
2024/01/12 04:15:15;;;;;;;;;;;-5.30;99.90;;;;;;5105241;28;19975;-68
2024/01/12 04:17:41;;;;;;;;;;;-5.20;99.90;;;;;;5106097;28;20140;-69
2024/01/12 04:20:09;;;;;;;;;;;-5.20;99.90;;;;;;5104605;28;19984;-69
2024/01/12 04:22:37;;;;;;;;;;;-5.20;99.90;;;;;;5104609;28;19951;-68
2024/01/12 04:25:04;;;;;;;;;;;-5.20;99.90;;;;;;5105388;28;19987;-69
2024/01/12 04:27:30;;;;;;;;;;;-5.10;99.90;;;;;;5106101;28;19920;-68
2024/01/12 04:29:57;;;;;;;;;;;-5.00;99.90;;;;;;5103703;28;20205;-69
2024/01/12 04:32:24;;;;;;;;;;;-4.90;99.90;;;;;;5105469;28;19963;-69
2024/01/12 04:34:50;;;;;;;;;;;-4.80;99.90;;;;;;5097213;28;20143;-69
2024/01/12 04:37:17;;;;;;;;;;;-4.80;99.90;;;;;;5105420;28;19920;-69
2024/01/12 04:39:45;;;;;;;;;;;-4.60;99.90;;;;;;5105528;28;20094;-69
2024/01/12 04:42:11;;;;;;;;;;;-4.50;99.90;;;;;;5105240;28;20285;-69
2024/01/12 04:44:38;;;;;;;;;;;-4.30;99.90;;;;;;5102107;28;19920;-69
2024/01/12 04:47:06;;;;;;;;;;;-4.30;99.90;;;;;;5105456;28;20109;-68
2024/01/12 04:49:33;;;;;;;;;;;-4.20;99.90;;;;;;5097671;28;19979;-68
2024/01/12 04:51:59;;;;;;;;;;;-4.10;99.90;;;;;;5105435;28;19928;-69
2024/01/12 04:54:26;;;;;;;;;;;-4.10;99.90;;;;;;5104690;28;19923;-69
2024/01/12 04:56:54;;;;;;;;;;;-4.00;99.90;;;;;;5103782;28;19967;-69
2024/01/12 04:59:21;;;;;;;;;;;-3.90;99.90;;;;;;5105004;28;19987;-69
2024/01/12 05:01:47;;;;;;;;;;;-3.90;99.90;;;;;;5105304;28;19924;-68
2024/01/12 05:04:14;;;;;;;;;;;-3.90;99.90;;;;;;5098491;28;19995;-68
2024/01/12 05:06:40;;;;;;;;;;;-3.80;99.90;;;;;;5105290;28;20164;-69
2024/01/12 05:09:07;;;;;;;;;;;-3.80;99.90;;;;;;5104881;28;19920;-68
2024/01/12 05:11:34;;;;;;;;;;;-3.70;99.90;;;;;;5104892;28;19920;-69
2024/01/12 05:14:02;;;;;;;;;;;-3.70;99.90;;;;;;5104124;28;19926;-68
2024/01/12 05:16:28;;;;;;;;;;;-3.70;99.90;;;;;;5104233;28;19920;-68
2024/01/12 05:18:55;;;;;;;;;;;-3.60;99.90;;;;;;5104716;28;19983;-68
2024/01/12 05:21:22;;;;;;;;;;;-3.60;99.90;;;;;;5104746;28;20261;-69
2024/01/12 05:23:48;;;;;;;;;;;-3.60;99.90;;;;;;5104330;28;19990;-68
2024/01/12 05:26:15;;;;;;;;;;;-3.60;99.90;;;;;;5104815;28;19919;-69
2024/01/12 05:28:42;;;;;;;;;;;-3.60;99.90;;;;;;5104511;28;19920;-69
2024/01/12 05:31:10;;;;;;;;;;;-3.50;99.90;;;;;;5101340;28;19928;-69
2024/01/12 05:33:37;;;;;;;;;;;-3.60;99.90;;;;;;5103758;28;19955;-68
2024/01/12 05:36:04;;;;;;;;;;;-3.60;99.90;;;;;;5104378;28;19942;-68
2024/01/12 05:38:30;;;;;;;;;;;-3.60;99.90;;;;;;5104408;28;19920;-68
2024/01/12 05:40:57;;;;;;;;;;;-3.50;99.90;;;;;;5098344;28;20113;-68
2024/01/12 05:43:23;;;;;;;;;;;-3.50;99.90;;;;;;5104538;28;19920;-68
2024/01/12 05:45:50;;;;;;;;;;;-3.50;99.90;;;;;;5102573;28;20217;-69
2024/01/12 05:48:19;;;;;;;;;;;-3.40;99.90;;;;;;5103283;28;19983;-68
2024/01/12 05:50:45;;;;;;;;;;;-3.40;99.90;;;;;;5104491;28;19924;-68
2024/01/12 05:53:12;;;;;;;;;;;-3.40;99.90;;;;;;5104059;28;19956;-68
2024/01/12 05:55:38;;;;;;;;;;;-3.40;99.90;;;;;;5103650;28;20157;-68
2024/01/12 05:58:05;;;;;;;;;;;-3.40;99.90;;;;;;5103661;28;19920;-68
2024/01/12 06:00:32;;;;;;;;;;;-3.40;99.90;;;;;;5104266;28;19951;-69
2024/01/12 06:02:58;;;;;;;;;;;-3.40;99.90;;;;;;5103726;28;19920;-69
2024/01/12 06:05:26;;;;;;;;;;;-3.40;99.90;;;;;;5103517;28;19927;-68
2024/01/12 06:07:53;;;;;;;;;;;-3.40;99.90;;;;;;5103863;28;19963;-69
2024/01/12 06:10:19;;;;;;;;;;;-3.40;99.90;;;;;;5103742;28;20162;-69
2024/01/12 06:12:46;;;;;;;;;;;-3.40;99.90;;;;;;5103863;28;19983;-69
2024/01/12 06:15:13;;;;;;;;;;;-3.30;99.90;;;;;;5103301;28;20401;-68
2024/01/12 06:17:40;;;;;;;;;;;-3.30;99.90;;;;;;5097396;28;19966;-69
2024/01/12 06:20:07;;;;;;;;;;;-3.30;99.90;;;;;;5062777;28;19955;-69
2024/01/12 06:22:35;;;;;;;;;;;-3.30;99.90;;;;;;5083539;28;19969;-70
2024/01/12 06:25:02;;;;;;;;;;;-3.30;99.90;;;;;;5074617;28;19975;-69
2024/01/12 06:27:28;;;;;;;;;;;-3.30;99.90;;;;;;5092078;28;19983;-69
2024/01/12 06:29:55;;;;;;;;;;;-3.30;99.90;;;;;;5080120;28;19984;-68
2024/01/12 06:32:22;;;;;;;;;;;-3.30;99.90;;;;;;5083560;28;19975;-69
2024/01/12 06:34:48;;;;;;;;;;;-3.30;99.90;;;;;;5086196;28;20170;-70
2024/01/12 06:37:15;;;;;;;;;;;-3.30;99.90;;;;;;5103427;28;19975;-69
2024/01/12 06:39:43;;;;;;;;;;;-3.30;99.90;;;;;;5103660;28;19983;-69
2024/01/12 06:42:09;;;;;;;;;;;-3.30;99.90;;;;;;5103269;28;19964;-68
2024/01/12 06:44:39;;;;;;;;;;;-3.40;99.90;;;;;;5102896;28;19962;-69
2024/01/12 06:47:07;;;;;;;;;;;-3.30;99.90;;;;;;5103354;28;19963;-69
2024/01/12 06:49:34;;;;;;;;;;;-3.30;99.90;;;;;;5098228;28;19920;-69
2024/01/12 06:52:00;;;;;;;;;;;-3.20;99.90;;;;;;5099360;28;19980;-69
2024/01/12 06:54:27;;;;;;;;;;;-3.20;99.90;;;;;;5103027;28;19921;-69
2024/01/12 06:56:56;;;;;;;;;;;-3.20;99.90;;;;;;5103234;28;20206;-69
2024/01/12 06:59:23;;;;;;;;;;;-3.20;99.90;;;;;;5105768;28;19955;-69
2024/01/12 07:01:50;;;;;;;;;;;-3.30;99.90;;;;;;5106134;28;20267;-69
2024/01/12 07:04:16;;;;;;;;;;;-3.30;99.90;;;;;;5106966;28;19931;-69
2024/01/12 07:06:43;;;;;;;;;;;-3.20;99.90;;;;;;5107676;28;19983;-69
2024/01/12 07:09:12;;;;;;;;;;;-3.10;99.90;;;;;;5107396;28;19928;-69
2024/01/12 07:11:40;;;;;;;;;;;-3.10;99.90;;;;;;5107630;28;19920;-69
2024/01/12 07:14:08;;;;;;;;;;;-3.10;99.90;;;;;;5106602;28;19927;-69
2024/01/12 07:16:35;;;;;;;;;;;-3.10;99.90;;;;;;5107539;28;19956;-69
2024/01/12 07:19:01;;;;;;;;;;;-3.10;99.90;;;;;;5107168;28;19921;-69
2024/01/12 07:21:28;;;;;;;;;;;-3.10;99.90;;;;;;5107674;28;19983;-69
2024/01/12 07:23:55;;;;;;;;;;;-3.10;99.90;;;;;;5106566;28;19999;-69
2024/01/12 07:26:21;;;;;;;;;;;-3.10;99.90;;;;;;5097712;28;20258;-69
2024/01/12 07:28:48;;;;;;;;;;;-3.10;99.90;;;;;;5077346;28;19928;-69
2024/01/12 07:31:16;;;;;;;;;;;-3.10;99.90;;;;;;5060937;28;20042;-70
2024/01/12 07:33:42;;;;;;;;;;;-3.10;99.90;;;;;;5061435;28;19992;-69
2024/01/12 07:36:09;;;;;;;;;;;-3.10;99.90;;;;;;5062056;28;19992;-69
2024/01/12 07:38:36;;;;;;;;;;;-3.10;99.90;;;;;;5067713;28;19920;-69
2024/01/12 07:41:03;;;;;;;;;;;-3.10;99.90;;;;;;5102854;28;20201;-70
2024/01/12 07:43:30;;;;;;;;;;;-3.10;99.90;;;;;;5092753;28;19979;-69
2024/01/12 07:45:57;;;;;;;;;;;-3.00;99.90;;;;;;5092200;28;19920;-69
2024/01/12 07:48:25;;;;;;;;;;;-3.00;99.90;;;;;;5098115;28;19928;-69
2024/01/12 07:50:51;;;;;;;;;;;-3.00;99.90;;;;;;5097854;28;19955;-68
2024/01/12 07:53:18;;;;;;;;;;;-3.00;99.90;;;;;;5096832;28;20269;-69
2024/01/12 07:55:45;;;;;;;;;;;-3.00;99.90;;;;;;5095465;28;19995;-69
2024/01/12 07:58:11;;;;;;;;;;;-3.00;99.90;;;;;;5061009;28;20019;-68
2024/01/12 08:00:38;;;;;;;;;;;-3.00;99.90;;;;;;5057191;28;19951;-69
2024/01/12 08:03:05;;;;;;;;;;;-2.90;99.90;;;;;;5059140;28;19920;-69
2024/01/12 08:05:33;;;;;;;;;;;-2.90;99.90;;;;;;5061376;28;19920;-68
2024/01/12 08:07:59;;;;;;;;;;;-3.00;99.90;;;;;;5077773;28;19948;-68
2024/01/12 08:10:26;;;;;;;;;;;-3.00;99.90;;;;;;5099488;28;19984;-68
2024/01/12 08:12:53;;;;;;;;;;;-3.00;99.90;;;;;;5095928;28;19986;-68
2024/01/12 08:15:19;;;;;;;;;;;-3.00;99.90;;;;;;5097566;28;19921;-68
2024/01/12 08:17:46;;;;;;;;;;;-3.00;99.90;;;;;;5070996;28;19933;-69
2024/01/12 08:20:13;;;;;;;;;;;-3.00;99.90;;;;;;5088771;28;19939;-68
2024/01/12 08:22:41;;;;;;;;;;;-2.90;99.90;;;;;;5086241;28;19924;-68
2024/01/12 08:25:08;;;;;;;;;;;-2.90;99.90;;;;;;5095499;28;19928;-68
2024/01/12 08:27:34;;;;;;;;;;;-2.80;99.90;;;;;;5096947;28;19963;-68
2024/01/12 08:30:01;;;;;;;;;;;-2.80;99.90;;;;;;5096870;28;19920;-68
2024/01/12 08:32:27;;;;;;;;;;;-2.80;99.90;;;;;;5093859;28;19979;-68
2024/01/12 08:34:54;;;;;;;;;;;-2.80;99.90;;;;;;5097925;28;19959;-68
2024/01/12 08:37:21;;;;;;;;;;;-2.80;99.90;;;;;;5084984;28;19920;-69
2024/01/12 08:39:48;;;;;;;;;;;-2.80;99.90;;;;;;5079431;28;19988;-68
2024/01/12 08:42:15;;;;;;;;;;;-2.80;99.90;;;;;;5074743;28;19979;-68
2024/01/12 08:44:42;;;;;;;;;;;-2.90;99.90;;;;;;5086420;28;19963;-68
2024/01/12 08:47:09;;;;;;;;;;;-2.80;99.90;;;;;;5103369;28;19983;-69
2024/01/12 08:49:35;;;;;;;;;;;-2.90;99.90;;;;;;5084892;28;20217;-69
2024/01/12 08:52:02;;;;;;;;;;;-2.90;99.90;;;;;;5093447;28;19979;-68
2024/01/12 08:54:28;;;;;;;;;;;-2.90;99.90;;;;;;5100301;28;19919;-70
2024/01/12 08:56:56;;;;;;;;;;;-2.90;99.90;;;;;;5092332;28;19956;-69
2024/01/12 08:59:23;;;;;;;;;;;-2.90;99.90;;;;;;5085298;28;19921;-68
2024/01/12 09:01:50;;;;;;;;;;;-2.80;99.90;;;;;;5097136;28;19920;-69
2024/01/12 09:04:16;;;;;;;;;;;-2.80;99.90;;;;;;5095384;28;19987;-68
2024/01/12 09:06:43;;;;;;;;;;;-2.70;99.90;;;;;;5088041;28;19920;-68
2024/01/12 09:09:10;;;;;;;;;;;-2.70;99.90;;;;;;5077979;28;19963;-68
2024/01/12 09:11:36;;;;;;;;;;;-2.70;99.90;;;;;;5090992;28;19959;-68
2024/01/12 09:14:04;;;;;;;;;;;-2.80;99.90;;;;;;5084471;28;19927;-68
2024/01/12 09:16:31;;;;;;;;;;;-2.80;99.90;;;;;;5078079;28;19921;-68
2024/01/12 09:18:58;;;;;;;;;;;-2.80;99.90;;;;;;5066949;28;19983;-68
2024/01/12 09:21:24;;;;;;;;;;;-2.90;99.90;;;;;;5083221;28;19921;-69
2024/01/12 09:23:51;;;;;;;;;;;-2.80;99.90;;;;;;5076878;28;19921;-69
2024/01/12 09:26:17;;;;;;;;;;;-2.80;99.90;;;;;;5105003;28;19971;-68
2024/01/12 09:28:44;;;;;;;;;;;-2.70;99.90;;;;;;5088891;28;20358;-68
2024/01/12 09:31:12;;;;;;;;;;;-2.60;99.90;;;;;;5093994;28;20071;-69
2024/01/12 09:33:39;;;;;;;;;;;-2.70;99.90;;;;;;5096848;28;19958;-68
2024/01/12 09:36:06;;;;;;;;;;;-2.70;99.90;;;;;;5097106;28;19920;-68
2024/01/12 09:38:33;;;;;;;;;;;-2.70;99.90;;;;;;5087606;28;19924;-69
2024/01/12 09:41:00;;;;;;;;;;;-2.70;99.90;;;;;;5089588;28;19979;-68
2024/01/12 09:43:28;;;;;;;;;;;-2.70;99.90;;;;;;5095965;28;19980;-68
2024/01/12 09:45:59;;;;;;;;;;;-2.70;99.90;;;;;;5090408;28;19921;-68
2024/01/12 09:48:27;;;;;;;;;;;-2.70;99.90;;;;;;5092561;28;19958;-68
2024/01/12 09:50:54;;;;;;;;;;;-2.70;99.90;;;;;;5094841;28;19928;-69
2024/01/12 09:53:21;;;;;;;;;;;-2.70;99.90;;;;;;5103136;28;19951;-68
2024/01/12 09:55:48;;;;;;;;;;;-2.60;99.90;;;;;;5083655;28;19987;-68
2024/01/12 09:58:16;;;;;;;;;;;-2.70;99.90;;;;;;5097389;28;19970;-68
2024/01/12 10:00:42;;;;;;;;;;;-2.70;99.90;;;;;;5088388;28;19927;-68
2024/01/12 10:03:10;;;;;;;;;;;-2.70;99.90;;;;;;5095882;28;20252;-68
2024/01/12 10:05:38;;;;;;;;;;;-2.60;99.90;;;;;;5082864;28;19968;-69
2024/01/12 10:08:05;;;;;;;;;;;-2.60;99.90;;;;;;5058633;28;19971;-68
2024/01/12 10:10:31;;;;;;;;;;;-2.60;99.90;;;;;;5059360;28;19928;-68
2024/01/12 10:12:58;;;;;;;;;;;-2.60;99.90;;;;;;5064501;28;19928;-68
2024/01/12 10:15:26;;;;;;;;;;;-2.50;99.90;;;;;;5076965;28;20190;-69
2024/01/12 10:17:53;;;;;;;;;;;-2.50;99.90;;;;;;5091377;28;19920;-69
2024/01/12 10:20:20;;;;;;;;;;;-2.50;99.90;;;;;;5074855;28;19951;-68
2024/01/12 10:22:56;;;;;;;;;;;-2.50;99.90;;;;;;5074325;28;20218;-68
2024/01/12 10:25:22;;;;;;;;;;;-2.50;99.90;;;;;;5066238;28;19984;-68
2024/01/12 10:27:54;;;;;;;;;;;-2.40;99.90;;;;;;5058399;28;19942;-69
2024/01/12 10:30:21;;;;;;;;;;;-2.40;99.90;;;;;;5074380;28;19951;-68
2024/01/12 10:32:50;;;;;;;;;;;-2.50;99.90;;;;;;5094801;28;20086;-67
2024/01/12 10:35:17;;;;;;;;;;;-2.50;99.90;;;;;;5089132;28;19924;-69
2024/01/12 10:37:45;;;;;;;;;;;-2.50;99.90;;;;;;5085961;28;19920;-68
2024/01/12 10:40:14;;;;;;;;;;;-2.50;99.90;;;;;;5103271;28;19938;-69
2024/01/12 10:42:42;;;;;;;;;;;-2.50;99.90;;;;;;5088903;28;19987;-68
2024/01/12 10:45:12;;;;;;;;;;;-2.50;99.90;;;;;;5083585;28;19966;-68
2024/01/12 10:47:40;;;;;;;;;;;-2.50;99.90;;;;;;5092162;28;19955;-69
2024/01/12 10:50:10;;;;;;;;;;;-2.50;99.90;;;;;;5081738;28;19951;-74
2024/01/12 10:52:40;;;;;;;;;;;-2.50;99.90;;;;;;5103500;28;19947;-69
2024/01/12 10:55:10;;;;;;;;;;;-2.40;99.90;;;;;;5103128;28;19920;-69
2024/01/12 10:57:38;;;;;;;;;;;-2.40;99.90;;;;;;5103777;28;20152;-69
2024/01/12 11:00:05;;;;;;;;;;;-2.40;99.90;;;;;;5102287;28;19979;-69
2024/01/12 11:02:32;;;;;;;;;;;-2.40;99.90;;;;;;5103833;28;19921;-69
2024/01/12 11:05:00;;;;;;;;;;;-2.40;99.90;;;;;;5102800;28;19991;-69
2024/01/12 11:07:28;;;;;;;;;;;-2.40;99.90;;;;;;5087746;28;19959;-69
2024/01/12 11:09:55;;;;;;;;;;;-2.50;99.90;;;;;;5093491;28;19927;-69
2024/01/12 11:12:27;;;;;;;;;;;-2.40;99.90;;;;;;5103717;28;19927;-69
2024/01/12 11:14:55;;;;;;;;;;;-2.40;99.90;;;;;;5102151;28;20227;-69
2024/01/12 11:17:27;;;;;;;;;;;-2.40;99.90;;;;;;5103200;28;20261;-69
2024/01/12 11:20:03;;;;;;;;;;;-2.40;99.90;;;;;;5101656;28;19942;-70
2024/01/12 11:22:30;;;;;;;;;;;-2.30;99.90;;;;;;5088196;28;19966;-69
2024/01/12 11:24:58;;;;;;;;;;;-2.40;99.90;;;;;;5094516;28;19921;-69
2024/01/12 11:27:30;;;;;;;;;;;-2.40;99.90;;;;;;5098797;28;20421;-69
2024/01/12 11:30:00;;;;;;;;;;;-2.40;99.90;;;;;;5101227;28;19920;-69
2024/01/12 11:32:28;;;;;;;;;;;-2.30;99.90;;;;;;5103364;28;19987;-69
2024/01/12 11:35:09;;;;;;;;;;;-2.30;99.90;;;;;;5098472;28;19921;-69
2024/01/12 11:37:36;;;;;;;;;;;-2.30;99.90;;;;;;5103179;28;19991;-69
2024/01/12 11:40:06;;;;;;;;;;;-2.30;99.90;;;;;;5097227;28;19947;-69
2024/01/12 11:42:33;;;;;;;;;;;-2.20;99.90;;;;;;5103203;28;19927;-69
2024/01/12 11:45:02;;;;;;;;;;;-2.30;99.90;;;;;;5102372;28;19920;-70
2024/01/12 11:47:29;;;;;;;;;;;-2.20;99.90;;;;;;5099370;28;19920;-69
2024/01/12 11:49:55;;;;;;;;;;;-2.20;99.90;;;;;;5104710;28;20112;-69
2024/01/12 11:52:22;;;;;;;;;;;-2.20;99.90;;;;;;5106867;28;19927;-69
2024/01/12 11:54:49;;;;;;;;;;;-2.30;99.90;;;;;;5106077;28;20217;-69
2024/01/12 11:57:16;;;;;;;;;;;-2.30;99.90;;;;;;5101450;28;19983;-69
2024/01/12 11:59:43;;;;;;;;;;;-2.30;99.90;;;;;;5106143;28;20213;-69
2024/01/12 12:02:12;;;;;;;;;;;-2.30;99.90;;;;;;5106464;28;20022;-69
2024/01/12 12:04:38;;;;;;;;;;;-2.30;99.90;;;;;;5106058;28;19919;-69
2024/01/12 12:07:05;;;;;;;;;;;-2.30;99.90;;;;;;5100517;28;19962;-69
2024/01/12 12:09:32;;;;;;;;;;;-2.20;99.90;;;;;;5106365;28;19987;-69
2024/01/12 12:11:59;;;;;;;;;;;-2.20;99.90;;;;;;5106112;28;19920;-69
2024/01/12 12:14:25;;;;;;;;;;;-2.30;99.90;;;;;;5105916;28;19955;-69
2024/01/12 12:16:52;;;;;;;;;;;-2.20;99.90;;;;;;5106108;28;20121;-69
2024/01/12 12:19:20;;;;;;;;;;;-2.20;99.90;;;;;;5105931;28;19920;-69
2024/01/12 12:21:47;;;;;;;;;;;-2.30;99.90;;;;;;5105744;28;19920;-69
2024/01/12 12:24:13;;;;;;;;;;;-2.30;99.90;;;;;;5104841;28;20252;-69
2024/01/12 12:26:41;;;;;;;;;;;-2.30;99.90;;;;;;5099880;28;20238;-69
2024/01/12 12:29:09;;;;;;;;;;;-2.30;99.90;;;;;;5104994;28;19920;-69
2024/01/12 12:31:39;;;;;;;;;;;-2.40;99.90;;;;;;5101848;28;19962;-69
2024/01/12 12:34:05;;;;;;;;;;;-2.40;99.90;;;;;;5105186;28;19958;-69
2024/01/12 12:36:33;;;;;;;;;;;-2.40;99.90;;;;;;5101138;28;19988;-69
2024/01/12 12:39:00;;;;;;;;;;;-2.40;99.90;;;;;;5103700;28;19951;-69
2024/01/12 12:41:27;;;;;;;;;;;-2.40;99.90;;;;;;5101147;28;19932;-68
2024/01/12 12:43:55;;;;;;;;;;;-2.50;99.90;;;;;;5105345;28;19970;-69
2024/01/12 12:46:22;;;;;;;;;;;-2.50;99.90;;;;;;5105540;28;19920;-70
2024/01/12 12:48:51;;;;;;;;;;;-2.50;99.90;;;;;;5105553;28;19983;-69
2024/01/12 12:51:17;;;;;;;;;;;-2.50;99.90;;;;;;5089235;28;19950;-69
2024/01/12 12:53:45;;;;;;;;;;;-2.50;99.90;;;;;;5101417;28;19987;-69
2024/01/12 12:56:12;;;;;;;;;;;-2.40;99.90;;;;;;5104843;28;19962;-69
2024/01/12 12:58:38;;;;;;;;;;;-2.40;99.90;;;;;;5105024;28;19927;-69
2024/01/12 13:01:05;;;;;;;;;;;-2.40;99.90;;;;;;5105109;28;20171;-69
2024/01/12 13:03:32;;;;;;;;;;;-2.50;99.90;;;;;;5105274;28;19960;-69
2024/01/12 13:05:58;;;;;;;;;;;-2.40;99.90;;;;;;5104245;28;19955;-69
2024/01/12 13:08:25;;;;;;;;;;;-2.40;99.90;;;;;;5104958;28;19920;-69
2024/01/12 13:10:53;;;;;;;;;;;-2.30;99.90;;;;;;5098325;28;19979;-69
2024/01/12 13:13:20;;;;;;;;;;;-2.30;99.90;;;;;;5104974;28;19926;-69
2024/01/12 13:15:47;;;;;;;;;;;-2.20;99.90;;;;;;5104509;28;19920;-69
2024/01/12 13:18:14;;;;;;;;;;;-2.20;99.90;;;;;;5104730;28;20003;-69
2024/01/12 13:20:40;;;;;;;;;;;-2.20;99.90;;;;;;5101707;28;19988;-69
2024/01/12 13:23:07;;;;;;;;;;;-2.10;99.90;;;;;;5104831;28;19959;-69
2024/01/12 13:25:34;;;;;;;;;;;-2.10;99.90;;;;;;5104209;28;19955;-69
2024/01/12 13:28:02;;;;;;;;;;;-2.10;99.90;;;;;;5104519;28;19982;-69
2024/01/12 13:30:28;;;;;;;;;;;-2.10;99.90;;;;;;5100087;28;20173;-69
2024/01/12 13:32:55;;;;;;;;;;;-2.10;99.90;;;;;;5104467;28;19976;-69
2024/01/12 13:35:22;;;;;;;;;;;-2.10;99.90;;;;;;5084350;28;19920;-71
2024/01/12 13:37:48;;;;;;;;;;;-2.20;99.90;;;;;;5088833;28;19920;-70
2024/01/12 13:40:15;;;;;;;;;;;-2.20;99.90;;;;;;5077638;28;19944;-69
2024/01/12 13:42:42;;;;;;;;;;;-2.30;99.90;;;;;;5084031;28;20090;-69
2024/01/12 13:45:10;;;;;;;;;;;-2.30;99.90;;;;;;5101772;28;19920;-69
2024/01/12 13:47:36;;;;;;;;;;;-2.30;99.90;;;;;;5093122;28;20276;-69
2024/01/12 13:50:03;;;;;;;;;;;-2.40;99.90;;;;;;5072769;28;20181;-68
2024/01/12 13:52:31;;;;;;;;;;;-2.40;99.90;;;;;;5093410;28;19927;-68
2024/01/12 13:54:57;;;;;;;;;;;-2.40;99.90;;;;;;5093782;28;19951;-68
2024/01/12 13:57:24;;;;;;;;;;;-2.40;99.90;;;;;;5059868;28;19928;-68
2024/01/12 13:59:50;;;;;;;;;;;-2.40;99.90;;;;;;5058981;28;19947;-67
2024/01/12 14:02:19;;;;;;;;;;;-2.40;99.90;;;;;;5060077;28;19920;-68
2024/01/12 14:04:45;;;;;;;;;;;-2.40;99.90;;;;;;5057775;28;20214;-68
2024/01/12 14:07:12;;;;;;;;;;;-2.40;99.90;;;;;;5060048;28;21280;-68
2024/01/12 14:09:39;;;;;;;;;;;-2.40;99.90;;;;;;5058960;28;19980;-69
2024/01/12 14:12:06;;;;;;;;;;;-2.40;99.90;;;;;;5057944;28;19967;-68
2024/01/12 14:14:32;;;;;;;;;;;-2.40;99.90;;;;;;5057028;28;19937;-69